sensor_id;sensor_type;location;lat;lon;timestamp;P1;durP1;ratioP1;P2;durP2;ratioP2
10511;SDS011;5304;48.604;2.096;2023-10-13T03:26:35;16.37;;;5.53;;
10511;SDS011;5304;48.604;2.096;2023-10-13T03:29:21;13.83;;;5.90;;
10511;SDS011;5304;48.604;2.096;2023-10-13T03:32:11;15.10;;;6.50;;
10511;SDS011;5304;48.604;2.096;2023-10-13T03:35:00;15.47;;;6.20;;
10511;SDS011;5304;48.604;2.096;2023-10-13T03:37:44;11.40;;;5.70;;
10511;SDS011;5304;48.604;2.096;2023-10-13T03:40:29;14.17;;;5.50;;
10511;SDS011;5304;48.604;2.096;2023-10-13T03:43:13;9.53;;;5.27;;
10511;SDS011;5304;48.604;2.096;2023-10-13T03:46:05;13.50;;;5.57;;
10511;SDS011;5304;48.604;2.096;2023-10-13T03:48:52;13.23;;;5.90;;
10511;SDS011;5304;48.604;2.096;2023-10-13T03:51:40;10.37;;;5.37;;
10511;SDS011;5304;48.604;2.096;2023-10-13T03:54:25;12.73;;;5.70;;
10511;SDS011;5304;48.604;2.096;2023-10-13T03:57:13;12.30;;;6.13;;
10511;SDS011;5304;48.604;2.096;2023-10-13T03:59:57;13.47;;;6.17;;
10511;SDS011;5304;48.604;2.096;2023-10-13T04:02:42;11.50;;;5.63;;
10511;SDS011;5304;48.604;2.096;2023-10-13T04:05:31;13.80;;;6.00;;
10511;SDS011;5304;48.604;2.096;2023-10-13T04:08:24;13.80;;;5.90;;
10511;SDS011;5304;48.604;2.096;2023-10-13T04:11:11;11.23;;;5.67;;
10511;SDS011;5304;48.604;2.096;2023-10-13T04:14:14;13.77;;;5.57;;
10511;SDS011;5304;48.604;2.096;2023-10-13T04:17:07;13.70;;;6.00;;
10511;SDS011;5304;48.604;2.096;2023-10-13T04:19:57;13.47;;;6.20;;
10511;SDS011;5304;48.604;2.096;2023-10-13T04:22:51;10.90;;;5.57;;
10511;SDS011;5304;48.604;2.096;2023-10-13T04:25:36;14.30;;;6.40;;
10511;SDS011;5304;48.604;2.096;2023-10-13T04:28:26;11.47;;;6.07;;
10511;SDS011;5304;48.604;2.096;2023-10-13T04:31:10;11.57;;;6.83;;
10511;SDS011;5304;48.604;2.096;2023-10-13T04:34:08;9.23;;;6.37;;
10511;SDS011;5304;48.604;2.096;2023-10-13T04:37:01;13.10;;;6.93;;
10511;SDS011;5304;48.604;2.096;2023-10-13T04:40:05;12.00;;;5.93;;
10511;SDS011;5304;48.604;2.096;2023-10-13T04:42:53;11.37;;;6.27;;
10511;SDS011;5304;48.604;2.096;2023-10-13T04:45:40;11.97;;;7.17;;
10511;SDS011;5304;48.604;2.096;2023-10-13T04:48:37;13.90;;;6.07;;
10511;SDS011;5304;48.604;2.096;2023-10-13T04:51:23;13.30;;;6.80;;
10511;SDS011;5304;48.604;2.096;2023-10-13T04:54:30;14.07;;;7.33;;
10511;SDS011;5304;48.604;2.096;2023-10-13T04:57:18;8.20;;;6.77;;
10511;SDS011;5304;48.604;2.096;2023-10-13T05:00:03;8.93;;;6.67;;
10511;SDS011;5304;48.604;2.096;2023-10-13T05:02:55;10.17;;;7.00;;
10511;SDS011;5304;48.604;2.096;2023-10-13T05:05:59;11.20;;;6.57;;
10511;SDS011;5304;48.604;2.096;2023-10-13T05:09:15;11.67;;;7.13;;
10511;SDS011;5304;48.604;2.096;2023-10-13T05:12:18;13.63;;;7.27;;
10511;SDS011;5304;48.604;2.096;2023-10-13T05:15:29;12.33;;;7.60;;
10511;SDS011;5304;48.604;2.096;2023-10-13T05:18:32;8.97;;;7.17;;
10511;SDS011;5304;48.604;2.096;2023-10-13T05:21:36;12.93;;;8.40;;
10511;SDS011;5304;48.604;2.096;2023-10-13T05:24:39;13.93;;;8.30;;
10511;SDS011;5304;48.604;2.096;2023-10-13T05:27:42;12.03;;;7.60;;
10511;SDS011;5304;48.604;2.096;2023-10-13T05:30:46;11.47;;;8.20;;
10511;SDS011;5304;48.604;2.096;2023-10-13T05:33:49;10.87;;;7.90;;
10511;SDS011;5304;48.604;2.096;2023-10-13T05:36:52;12.53;;;7.83;;
10511;SDS011;5304;48.604;2.096;2023-10-13T05:39:55;8.90;;;6.87;;
10511;SDS011;5304;48.604;2.096;2023-10-13T05:42:59;12.53;;;8.20;;
10511;SDS011;5304;48.604;2.096;2023-10-13T05:46:03;12.17;;;7.20;;
10511;SDS011;5304;48.604;2.096;2023-10-13T05:49:18;11.03;;;7.87;;
10511;SDS011;5304;48.604;2.096;2023-10-13T05:52:22;11.63;;;7.23;;
10511;SDS011;5304;48.604;2.096;2023-10-13T05:55:26;12.60;;;8.27;;
10511;SDS011;5304;48.604;2.096;2023-10-13T05:58:32;11.87;;;7.27;;
10511;SDS011;5304;48.604;2.096;2023-10-13T06:01:35;14.03;;;7.37;;
10511;SDS011;5304;48.604;2.096;2023-10-13T06:04:38;11.50;;;7.57;;
10511;SDS011;5304;48.604;2.096;2023-10-13T06:07:41;13.13;;;6.63;;
10511;SDS011;5304;48.604;2.096;2023-10-13T06:10:44;11.00;;;7.20;;
10511;SDS011;5304;48.604;2.096;2023-10-13T06:13:47;8.07;;;7.20;;
10511;SDS011;5304;48.604;2.096;2023-10-13T06:16:58;9.37;;;6.77;;
10511;SDS011;5304;48.604;2.096;2023-10-13T06:20:01;10.40;;;7.33;;
10511;SDS011;5304;48.604;2.096;2023-10-13T06:23:05;8.83;;;6.90;;
10511;SDS011;5304;48.604;2.096;2023-10-13T06:26:08;11.53;;;7.13;;
10511;SDS011;5304;48.604;2.096;2023-10-13T06:29:11;11.27;;;6.73;;
10511;SDS011;5304;48.604;2.096;2023-10-13T06:32:03;9.87;;;6.70;;
10511;SDS011;5304;48.604;2.096;2023-10-13T06:34:57;9.80;;;6.43;;
10511;SDS011;5304;48.604;2.096;2023-10-13T06:37:42;12.97;;;6.60;;
10511;SDS011;5304;48.604;2.096;2023-10-13T06:40:26;9.97;;;6.93;;
10511;SDS011;5304;48.604;2.096;2023-10-13T06:43:21;11.53;;;6.67;;
10511;SDS011;5304;48.604;2.096;2023-10-13T06:46:07;9.60;;;6.68;;
10511;SDS011;5304;48.604;2.096;2023-10-13T06:48:58;9.10;;;6.40;;
10511;SDS011;5304;48.604;2.096;2023-10-13T06:51:43;10.60;;;6.73;;
10511;SDS011;5304;48.604;2.096;2023-10-13T06:54:29;9.93;;;6.67;;
10511;SDS011;5304;48.604;2.096;2023-10-13T06:57:17;10.75;;;6.60;;
10511;SDS011;5304;48.604;2.096;2023-10-13T07:00:04;14.87;;;7.10;;
10511;SDS011;5304;48.604;2.096;2023-10-13T07:02:52;9.10;;;6.53;;
10511;SDS011;5304;48.604;2.096;2023-10-13T07:05:37;8.68;;;6.28;;
10511;SDS011;5304;48.604;2.096;2023-10-13T07:08:22;10.97;;;6.43;;
10511;SDS011;5304;48.604;2.096;2023-10-13T07:11:07;13.40;;;6.30;;
10511;SDS011;5304;48.604;2.096;2023-10-13T07:14:03;8.57;;;6.15;;
10511;SDS011;5304;48.604;2.096;2023-10-13T07:16:59;9.63;;;6.90;;
10511;SDS011;5304;48.604;2.096;2023-10-13T07:19:46;9.07;;;6.27;;
10511;SDS011;5304;48.604;2.096;2023-10-13T07:22:36;8.73;;;6.47;;
10511;SDS011;5304;48.604;2.096;2023-10-13T07:25:23;9.15;;;6.03;;
10511;SDS011;5304;48.604;2.096;2023-10-13T07:28:09;8.40;;;6.20;;
10511;SDS011;5304;48.604;2.096;2023-10-13T07:30:53;8.50;;;6.27;;
10511;SDS011;5304;48.604;2.096;2023-10-13T07:33:38;13.00;;;6.50;;
10511;SDS011;5304;48.604;2.096;2023-10-13T07:36:24;9.63;;;6.22;;
10511;SDS011;5304;48.604;2.096;2023-10-13T07:39:16;8.13;;;5.57;;
10511;SDS011;5304;48.604;2.096;2023-10-13T07:42:04;10.75;;;6.25;;
10511;SDS011;5304;48.604;2.096;2023-10-13T07:44:51;12.50;;;6.53;;
10511;SDS011;5304;48.604;2.096;2023-10-13T07:47:39;9.17;;;5.53;;
10511;SDS011;5304;48.604;2.096;2023-10-13T07:50:23;9.52;;;5.93;;
10511;SDS011;5304;48.604;2.096;2023-10-13T07:53:09;7.50;;;5.75;;
10511;SDS011;5304;48.604;2.096;2023-10-13T07:56:03;8.05;;;6.03;;
10511;SDS011;5304;48.604;2.096;2023-10-13T07:58:52;7.95;;;5.55;;
10511;SDS011;5304;48.604;2.096;2023-10-13T08:01:36;8.85;;;6.22;;
10511;SDS011;5304;48.604;2.096;2023-10-13T08:04:27;9.73;;;6.07;;
10511;SDS011;5304;48.604;2.096;2023-10-13T08:07:12;8.73;;;6.03;;
10511;SDS011;5304;48.604;2.096;2023-10-13T08:09:57;7.63;;;5.60;;
10511;SDS011;5304;48.604;2.096;2023-10-13T08:12:43;9.00;;;5.63;;
10511;SDS011;5304;48.604;2.096;2023-10-13T08:15:28;8.30;;;5.90;;
10511;SDS011;5304;48.604;2.096;2023-10-13T08:18:18;11.10;;;6.00;;
10511;SDS011;5304;48.604;2.096;2023-10-13T08:21:15;10.93;;;5.40;;
10511;SDS011;5304;48.604;2.096;2023-10-13T08:24:02;7.78;;;5.57;;
10511;SDS011;5304;48.604;2.096;2023-10-13T08:26:51;9.95;;;5.85;;
10511;SDS011;5304;48.604;2.096;2023-10-13T08:29:58;11.70;;;5.60;;
10511;SDS011;5304;48.604;2.096;2023-10-13T08:32:43;7.72;;;5.35;;
10511;SDS011;5304;48.604;2.096;2023-10-13T08:35:37;10.82;;;5.35;;
10511;SDS011;5304;48.604;2.096;2023-10-13T08:38:28;6.47;;;5.30;;
10511;SDS011;5304;48.604;2.096;2023-10-13T08:41:12;13.15;;;5.60;;
10511;SDS011;5304;48.604;2.096;2023-10-13T08:44:01;7.30;;;5.40;;
10511;SDS011;5304;48.604;2.096;2023-10-13T08:46:47;9.02;;;5.05;;
10511;SDS011;5304;48.604;2.096;2023-10-13T08:49:47;7.55;;;5.18;;
10511;SDS011;5304;48.604;2.096;2023-10-13T08:52:36;9.57;;;5.47;;
10511;SDS011;5304;48.604;2.096;2023-10-13T08:55:32;9.05;;;5.18;;
10511;SDS011;5304;48.604;2.096;2023-10-13T08:58:48;7.57;;;5.13;;
10511;SDS011;5304;48.604;2.096;2023-10-13T09:01:36;7.97;;;5.30;;
10511;SDS011;5304;48.604;2.096;2023-10-13T09:04:23;8.23;;;5.40;;
10511;SDS011;5304;48.604;2.096;2023-10-13T09:07:17;9.70;;;5.28;;
10511;SDS011;5304;48.604;2.096;2023-10-13T09:10:05;8.27;;;5.88;;
10511;SDS011;5304;48.604;2.096;2023-10-13T09:13:15;8.38;;;5.10;;
10511;SDS011;5304;48.604;2.096;2023-10-13T09:16:10;7.80;;;5.28;;
10511;SDS011;5304;48.604;2.096;2023-10-13T09:19:03;10.13;;;5.05;;
10511;SDS011;5304;48.604;2.096;2023-10-13T09:21:48;9.23;;;4.95;;
10511;SDS011;5304;48.604;2.096;2023-10-13T09:24:38;7.50;;;5.07;;
10511;SDS011;5304;48.604;2.096;2023-10-13T09:27:27;6.65;;;5.30;;
10511;SDS011;5304;48.604;2.096;2023-10-13T09:30:13;7.68;;;5.13;;
10511;SDS011;5304;48.604;2.096;2023-10-13T09:33:07;7.57;;;4.82;;
10511;SDS011;5304;48.604;2.096;2023-10-13T09:35:52;10.13;;;5.13;;
10511;SDS011;5304;48.604;2.096;2023-10-13T09:38:37;8.43;;;5.35;;
10511;SDS011;5304;48.604;2.096;2023-10-13T09:41:24;7.68;;;5.13;;
10511;SDS011;5304;48.604;2.096;2023-10-13T09:44:15;8.57;;;5.10;;
10511;SDS011;5304;48.604;2.096;2023-10-13T09:47:01;9.88;;;5.13;;
10511;SDS011;5304;48.604;2.096;2023-10-13T09:49:52;6.95;;;5.05;;
10511;SDS011;5304;48.604;2.096;2023-10-13T09:52:47;8.07;;;4.90;;
10511;SDS011;5304;48.604;2.096;2023-10-13T09:55:32;10.93;;;4.93;;
10511;SDS011;5304;48.604;2.096;2023-10-13T09:58:22;9.30;;;5.40;;
10511;SDS011;5304;48.604;2.096;2023-10-13T10:01:12;6.82;;;5.05;;
10511;SDS011;5304;48.604;2.096;2023-10-13T10:04:08;8.73;;;4.55;;
10511;SDS011;5304;48.604;2.096;2023-10-13T10:07:00;9.50;;;5.03;;
10511;SDS011;5304;48.604;2.096;2023-10-13T10:09:45;9.45;;;5.53;;
10511;SDS011;5304;48.604;2.096;2023-10-13T10:13:01;12.00;;;5.53;;
10511;SDS011;5304;48.604;2.096;2023-10-13T10:16:01;7.47;;;4.78;;
10511;SDS011;5304;48.604;2.096;2023-10-13T10:19:00;8.93;;;4.95;;
10511;SDS011;5304;48.604;2.096;2023-10-13T10:21:51;6.55;;;4.55;;
10511;SDS011;5304;48.604;2.096;2023-10-13T10:24:57;6.63;;;4.53;;
10511;SDS011;5304;48.604;2.096;2023-10-13T10:27:43;10.68;;;5.25;;
10511;SDS011;5304;48.604;2.096;2023-10-13T10:30:28;7.70;;;5.10;;
10511;SDS011;5304;48.604;2.096;2023-10-13T10:33:13;9.32;;;4.70;;
10511;SDS011;5304;48.604;2.096;2023-10-13T10:35:59;8.32;;;4.80;;
10511;SDS011;5304;48.604;2.096;2023-10-13T10:38:54;9.30;;;5.15;;
10511;SDS011;5304;48.604;2.096;2023-10-13T10:41:42;7.07;;;5.10;;
10511;SDS011;5304;48.604;2.096;2023-10-13T10:44:27;10.50;;;4.97;;
10511;SDS011;5304;48.604;2.096;2023-10-13T10:47:21;16.13;;;4.60;;
10511;SDS011;5304;48.604;2.096;2023-10-13T10:50:25;12.05;;;5.40;;
10511;SDS011;5304;48.604;2.096;2023-10-13T10:53:18;8.90;;;4.97;;
10511;SDS011;5304;48.604;2.096;2023-10-13T10:56:04;8.07;;;4.93;;
10511;SDS011;5304;48.604;2.096;2023-10-13T10:58:50;7.65;;;5.18;;
10511;SDS011;5304;48.604;2.096;2023-10-13T11:01:43;9.45;;;4.90;;
10511;SDS011;5304;48.604;2.096;2023-10-13T11:04:31;8.88;;;5.15;;
10511;SDS011;5304;48.604;2.096;2023-10-13T11:07:22;9.00;;;5.30;;
10511;SDS011;5304;48.604;2.096;2023-10-13T11:10:10;9.88;;;4.93;;
10511;SDS011;5304;48.604;2.096;2023-10-13T11:13:11;10.07;;;4.75;;
10511;SDS011;5304;48.604;2.096;2023-10-13T11:15:57;8.95;;;4.93;;
10511;SDS011;5304;48.604;2.096;2023-10-13T11:18:42;7.22;;;4.63;;
10511;SDS011;5304;48.604;2.096;2023-10-13T11:21:29;9.75;;;5.40;;
10511;SDS011;5304;48.604;2.096;2023-10-13T11:24:14;9.40;;;4.47;;
10511;SDS011;5304;48.604;2.096;2023-10-13T11:27:01;15.77;;;5.40;;
10511;SDS011;5304;48.604;2.096;2023-10-13T11:29:46;9.88;;;5.25;;
10511;SDS011;5304;48.604;2.096;2023-10-13T11:32:35;8.85;;;4.78;;
10511;SDS011;5304;48.604;2.096;2023-10-13T11:35:20;10.60;;;4.57;;
10511;SDS011;5304;48.604;2.096;2023-10-13T11:38:04;10.27;;;4.65;;
10511;SDS011;5304;48.604;2.096;2023-10-13T11:40:58;7.18;;;4.63;;
10511;SDS011;5304;48.604;2.096;2023-10-13T11:44:03;10.93;;;4.85;;
10511;SDS011;5304;48.604;2.096;2023-10-13T11:47:11;7.50;;;5.03;;
10511;SDS011;5304;48.604;2.096;2023-10-13T11:50:21;10.18;;;5.40;;
10511;SDS011;5304;48.604;2.096;2023-10-13T11:53:16;8.52;;;4.88;;
10511;SDS011;5304;48.604;2.096;2023-10-13T11:56:01;8.18;;;5.00;;
10511;SDS011;5304;48.604;2.096;2023-10-13T11:58:52;10.32;;;5.10;;
10511;SDS011;5304;48.604;2.096;2023-10-13T12:01:36;9.23;;;4.97;;
10511;SDS011;5304;48.604;2.096;2023-10-13T12:04:47;9.68;;;4.90;;
10511;SDS011;5304;48.604;2.096;2023-10-13T12:07:43;10.25;;;4.78;;
10511;SDS011;5304;48.604;2.096;2023-10-13T12:10:32;21.85;;;5.75;;
10511;SDS011;5304;48.604;2.096;2023-10-13T12:13:33;7.28;;;4.72;;
10511;SDS011;5304;48.604;2.096;2023-10-13T12:16:17;11.70;;;4.90;;
10511;SDS011;5304;48.604;2.096;2023-10-13T12:19:02;12.43;;;5.35;;
10511;SDS011;5304;48.604;2.096;2023-10-13T12:21:49;8.30;;;5.05;;
10511;SDS011;5304;48.604;2.096;2023-10-13T12:24:37;9.70;;;5.03;;
10511;SDS011;5304;48.604;2.096;2023-10-13T12:27:26;12.55;;;4.95;;
10511;SDS011;5304;48.604;2.096;2023-10-13T12:30:19;9.05;;;4.70;;
10511;SDS011;5304;48.604;2.096;2023-10-13T12:33:19;11.10;;;4.90;;
10511;SDS011;5304;48.604;2.096;2023-10-13T12:36:33;11.63;;;4.65;;
10511;SDS011;5304;48.604;2.096;2023-10-13T12:39:25;7.55;;;4.53;;
10511;SDS011;5304;48.604;2.096;2023-10-13T12:42:30;9.20;;;4.60;;
10511;SDS011;5304;48.604;2.096;2023-10-13T12:45:37;12.10;;;4.80;;
10511;SDS011;5304;48.604;2.096;2023-10-13T12:48:44;13.70;;;4.63;;
10511;SDS011;5304;48.604;2.096;2023-10-13T12:51:48;8.32;;;4.68;;
10511;SDS011;5304;48.604;2.096;2023-10-13T12:54:35;11.73;;;4.53;;
10511;SDS011;5304;48.604;2.096;2023-10-13T12:57:19;14.55;;;5.00;;
10511;SDS011;5304;48.604;2.096;2023-10-13T13:00:06;8.77;;;4.90;;
10511;SDS011;5304;48.604;2.096;2023-10-13T13:03:00;10.88;;;4.45;;
10511;SDS011;5304;48.604;2.096;2023-10-13T13:05:54;10.60;;;5.20;;
10511;SDS011;5304;48.604;2.096;2023-10-13T13:08:39;8.55;;;4.78;;
10511;SDS011;5304;48.604;2.096;2023-10-13T13:11:27;12.68;;;4.80;;
10511;SDS011;5304;48.604;2.096;2023-10-13T13:14:15;12.30;;;4.90;;
10511;SDS011;5304;48.604;2.096;2023-10-13T13:16:59;11.77;;;5.20;;
10511;SDS011;5304;48.604;2.096;2023-10-13T13:19:50;8.88;;;4.47;;
10511;SDS011;5304;48.604;2.096;2023-10-13T13:22:34;11.10;;;5.03;;
10511;SDS011;5304;48.604;2.096;2023-10-13T13:25:18;10.95;;;5.07;;
10511;SDS011;5304;48.604;2.096;2023-10-13T13:28:09;10.18;;;4.82;;
10511;SDS011;5304;48.604;2.096;2023-10-13T13:30:55;11.43;;;4.85;;
10511;SDS011;5304;48.604;2.096;2023-10-13T13:33:39;13.82;;;4.80;;
10511;SDS011;5304;48.604;2.096;2023-10-13T13:36:26;13.60;;;4.97;;
10511;SDS011;5304;48.604;2.096;2023-10-13T13:39:11;13.02;;;5.25;;
10511;SDS011;5304;48.604;2.096;2023-10-13T13:41:56;16.77;;;5.82;;
10511;SDS011;5304;48.604;2.096;2023-10-13T13:44:44;13.82;;;5.68;;
10511;SDS011;5304;48.604;2.096;2023-10-13T13:47:31;17.00;;;5.63;;
10511;SDS011;5304;48.604;2.096;2023-10-13T13:50:17;13.52;;;5.78;;
10511;SDS011;5304;48.604;2.096;2023-10-13T13:53:07;10.15;;;6.00;;
10511;SDS011;5304;48.604;2.096;2023-10-13T13:55:55;12.25;;;5.70;;
10511;SDS011;5304;48.604;2.096;2023-10-13T13:58:39;16.52;;;6.35;;
10511;SDS011;5304;48.604;2.096;2023-10-13T14:01:24;15.00;;;6.30;;
10511;SDS011;5304;48.604;2.096;2023-10-13T14:04:13;12.20;;;5.75;;
10511;SDS011;5304;48.604;2.096;2023-10-13T14:07:00;13.15;;;5.72;;
10511;SDS011;5304;48.604;2.096;2023-10-13T14:09:49;16.90;;;6.20;;
10511;SDS011;5304;48.604;2.096;2023-10-13T14:12:49;14.20;;;6.40;;
10511;SDS011;5304;48.604;2.096;2023-10-13T14:15:34;11.43;;;5.97;;
10511;SDS011;5304;48.604;2.096;2023-10-13T14:18:24;10.68;;;6.00;;
10511;SDS011;5304;48.604;2.096;2023-10-13T14:21:14;14.77;;;5.93;;
10511;SDS011;5304;48.604;2.096;2023-10-13T14:24:00;12.38;;;5.72;;
10511;SDS011;5304;48.604;2.096;2023-10-13T14:26:45;14.23;;;6.15;;
10511;SDS011;5304;48.604;2.096;2023-10-13T14:29:30;12.50;;;5.95;;
10511;SDS011;5304;48.604;2.096;2023-10-13T14:32:14;11.00;;;5.78;;
10511;SDS011;5304;48.604;2.096;2023-10-13T14:34:59;11.70;;;6.72;;
10511;SDS011;5304;48.604;2.096;2023-10-13T14:37:44;19.52;;;6.07;;
10511;SDS011;5304;48.604;2.096;2023-10-13T14:40:28;15.00;;;6.32;;
10511;SDS011;5304;48.604;2.096;2023-10-13T14:43:13;15.50;;;6.53;;
10511;SDS011;5304;48.604;2.096;2023-10-13T14:45:57;13.23;;;5.85;;
10511;SDS011;5304;48.604;2.096;2023-10-13T14:48:45;14.52;;;5.65;;
10511;SDS011;5304;48.604;2.096;2023-10-13T14:51:32;15.65;;;6.57;;
10511;SDS011;5304;48.604;2.096;2023-10-13T14:54:17;17.42;;;6.00;;
10511;SDS011;5304;48.604;2.096;2023-10-13T14:57:08;17.70;;;6.25;;
10511;SDS011;5304;48.604;2.096;2023-10-13T14:59:54;9.57;;;5.22;;
10511;SDS011;5304;48.604;2.096;2023-10-13T15:02:39;15.68;;;5.65;;
10511;SDS011;5304;48.604;2.096;2023-10-13T15:05:27;13.23;;;6.00;;
10511;SDS011;5304;48.604;2.096;2023-10-13T15:08:14;9.93;;;5.72;;
10511;SDS011;5304;48.604;2.096;2023-10-13T15:11:23;12.70;;;5.60;;
10511;SDS011;5304;48.604;2.096;2023-10-13T15:14:24;13.57;;;5.57;;
10511;SDS011;5304;48.604;2.096;2023-10-13T15:17:09;15.18;;;5.88;;
10511;SDS011;5304;48.604;2.096;2023-10-13T15:19:53;17.13;;;5.30;;
10511;SDS011;5304;48.604;2.096;2023-10-13T15:22:38;10.13;;;5.57;;
10511;SDS011;5304;48.604;2.096;2023-10-13T15:25:22;12.40;;;5.45;;
10511;SDS011;5304;48.604;2.096;2023-10-13T15:28:13;16.65;;;5.78;;
10511;SDS011;5304;48.604;2.096;2023-10-13T15:30:57;14.80;;;5.82;;
10511;SDS011;5304;48.604;2.096;2023-10-13T15:33:54;13.20;;;5.18;;
10511;SDS011;5304;48.604;2.096;2023-10-13T15:36:42;18.63;;;6.03;;
10511;SDS011;5304;48.604;2.096;2023-10-13T15:39:27;13.82;;;5.72;;
10511;SDS011;5304;48.604;2.096;2023-10-13T15:42:12;12.65;;;6.07;;
10511;SDS011;5304;48.604;2.096;2023-10-13T15:44:57;12.45;;;6.10;;
10511;SDS011;5304;48.604;2.096;2023-10-13T15:47:43;13.35;;;5.90;;
10511;SDS011;5304;48.604;2.096;2023-10-13T15:50:35;13.50;;;5.93;;
10511;SDS011;5304;48.604;2.096;2023-10-13T15:53:23;16.40;;;6.10;;
10511;SDS011;5304;48.604;2.096;2023-10-13T15:56:09;15.07;;;6.03;;
10511;SDS011;5304;48.604;2.096;2023-10-13T15:58:58;13.70;;;6.97;;
10511;SDS011;5304;48.604;2.096;2023-10-13T16:01:44;14.52;;;6.88;;
10511;SDS011;5304;48.604;2.096;2023-10-13T16:04:32;15.27;;;6.63;;
10511;SDS011;5304;48.604;2.096;2023-10-13T16:07:16;15.45;;;6.45;;
10511;SDS011;5304;48.604;2.096;2023-10-13T16:10:02;14.70;;;5.97;;
10511;SDS011;5304;48.604;2.096;2023-10-13T16:12:55;15.75;;;6.25;;
10511;SDS011;5304;48.604;2.096;2023-10-13T16:15:41;17.65;;;6.97;;
10511;SDS011;5304;48.604;2.096;2023-10-13T16:18:26;15.52;;;6.70;;
10511;SDS011;5304;48.604;2.096;2023-10-13T16:21:11;17.02;;;6.82;;
10511;SDS011;5304;48.604;2.096;2023-10-13T16:23:58;15.00;;;6.57;;
10511;SDS011;5304;48.604;2.096;2023-10-13T16:26:44;10.40;;;6.65;;
10511;SDS011;5304;48.604;2.096;2023-10-13T16:29:28;15.15;;;6.72;;
10511;SDS011;5304;48.604;2.096;2023-10-13T16:32:15;13.70;;;6.53;;
10511;SDS011;5304;48.604;2.096;2023-10-13T16:35:03;14.85;;;6.63;;
10511;SDS011;5304;48.604;2.096;2023-10-13T16:37:49;12.70;;;6.60;;
10511;SDS011;5304;48.604;2.096;2023-10-13T16:40:36;13.30;;;6.82;;
10511;SDS011;5304;48.604;2.096;2023-10-13T16:43:23;13.82;;;6.70;;
10511;SDS011;5304;48.604;2.096;2023-10-13T16:46:13;17.90;;;7.68;;
10511;SDS011;5304;48.604;2.096;2023-10-13T16:48:59;16.40;;;6.22;;
10511;SDS011;5304;48.604;2.096;2023-10-13T16:51:43;16.13;;;7.07;;
10511;SDS011;5304;48.604;2.096;2023-10-13T16:54:28;13.25;;;7.13;;
10511;SDS011;5304;48.604;2.096;2023-10-13T16:57:12;13.25;;;7.00;;
10511;SDS011;5304;48.604;2.096;2023-10-13T16:59:57;13.73;;;7.47;;
10511;SDS011;5304;48.604;2.096;2023-10-13T17:02:41;13.75;;;6.80;;
10511;SDS011;5304;48.604;2.096;2023-10-13T17:05:26;12.00;;;7.07;;
10511;SDS011;5304;48.604;2.096;2023-10-13T17:08:11;16.10;;;6.95;;
10511;SDS011;5304;48.604;2.096;2023-10-13T17:11:06;17.63;;;8.18;;
10511;SDS011;5304;48.604;2.096;2023-10-13T17:13:54;18.75;;;9.13;;
10511;SDS011;5304;48.604;2.096;2023-10-13T17:16:40;19.05;;;9.27;;
10511;SDS011;5304;48.604;2.096;2023-10-13T17:19:27;18.77;;;9.98;;
10511;SDS011;5304;48.604;2.096;2023-10-13T17:22:12;19.20;;;10.18;;
10511;SDS011;5304;48.604;2.096;2023-10-13T17:24:58;21.02;;;10.70;;
10511;SDS011;5304;48.604;2.096;2023-10-13T17:27:44;18.08;;;9.77;;
10511;SDS011;5304;48.604;2.096;2023-10-13T17:30:29;21.05;;;10.15;;
10511;SDS011;5304;48.604;2.096;2023-10-13T17:33:13;20.15;;;11.15;;
10511;SDS011;5304;48.604;2.096;2023-10-13T17:35:59;18.98;;;11.20;;
10511;SDS011;5304;48.604;2.096;2023-10-13T17:38:43;19.05;;;11.10;;
10511;SDS011;5304;48.604;2.096;2023-10-13T17:41:28;22.02;;;13.38;;
10511;SDS011;5304;48.604;2.096;2023-10-13T17:44:16;24.60;;;14.98;;
10511;SDS011;5304;48.604;2.096;2023-10-13T17:47:00;30.08;;;17.88;;
10511;SDS011;5304;48.604;2.096;2023-10-13T17:49:44;26.60;;;18.17;;
10511;SDS011;5304;48.604;2.096;2023-10-13T17:52:29;26.17;;;18.23;;
10511;SDS011;5304;48.604;2.096;2023-10-13T17:55:13;29.58;;;18.95;;
10511;SDS011;5304;48.604;2.096;2023-10-13T17:58:00;32.13;;;19.00;;
10511;SDS011;5304;48.604;2.096;2023-10-13T18:00:44;32.70;;;19.05;;
10511;SDS011;5304;48.604;2.096;2023-10-13T18:03:29;26.75;;;17.98;;
10511;SDS011;5304;48.604;2.096;2023-10-13T18:06:13;25.60;;;18.98;;
10511;SDS011;5304;48.604;2.096;2023-10-13T18:09:00;29.17;;;16.60;;
10511;SDS011;5304;48.604;2.096;2023-10-13T18:11:44;27.17;;;17.63;;
10511;SDS011;5304;48.604;2.096;2023-10-13T18:14:29;25.38;;;16.95;;
10511;SDS011;5304;48.604;2.096;2023-10-13T18:17:13;22.15;;;16.50;;
10511;SDS011;5304;48.604;2.096;2023-10-13T18:20:00;22.27;;;15.35;;
10511;SDS011;5304;48.604;2.096;2023-10-13T18:22:47;22.98;;;14.90;;
10511;SDS011;5304;48.604;2.096;2023-10-13T18:25:35;25.10;;;14.02;;
10511;SDS011;5304;48.604;2.096;2023-10-13T18:28:19;18.08;;;13.38;;
10511;SDS011;5304;48.604;2.096;2023-10-13T18:31:04;19.25;;;12.38;;
10511;SDS011;5304;48.604;2.096;2023-10-13T18:33:50;16.65;;;10.38;;
10511;SDS011;5304;48.604;2.096;2023-10-13T18:36:41;19.50;;;11.05;;
10511;SDS011;5304;48.604;2.096;2023-10-13T18:39:30;15.13;;;9.48;;
10511;SDS011;5304;48.604;2.096;2023-10-13T18:42:18;15.38;;;9.27;;
10511;SDS011;5304;48.604;2.096;2023-10-13T18:45:03;13.38;;;8.65;;
10511;SDS011;5304;48.604;2.096;2023-10-13T18:47:48;16.58;;;8.93;;
10511;SDS011;5304;48.604;2.096;2023-10-13T18:50:40;13.00;;;9.20;;
10511;SDS011;5304;48.604;2.096;2023-10-13T18:53:25;15.38;;;9.02;;
10511;SDS011;5304;48.604;2.096;2023-10-13T18:56:19;14.80;;;9.45;;
10511;SDS011;5304;48.604;2.096;2023-10-13T18:59:04;17.80;;;10.05;;
10511;SDS011;5304;48.604;2.096;2023-10-13T19:01:48;15.43;;;10.18;;
10511;SDS011;5304;48.604;2.096;2023-10-13T19:04:32;14.57;;;9.57;;
10511;SDS011;5304;48.604;2.096;2023-10-13T19:07:19;14.45;;;9.77;;
10511;SDS011;5304;48.604;2.096;2023-10-13T19:10:03;15.13;;;9.90;;
10511;SDS011;5304;48.604;2.096;2023-10-13T19:13:00;14.23;;;10.50;;
10511;SDS011;5304;48.604;2.096;2023-10-13T19:15:44;19.40;;;10.65;;
10511;SDS011;5304;48.604;2.096;2023-10-13T19:18:29;18.83;;;10.60;;
10511;SDS011;5304;48.604;2.096;2023-10-13T19:21:14;17.25;;;10.27;;
10511;SDS011;5304;48.604;2.096;2023-10-13T19:24:03;17.17;;;10.48;;
10511;SDS011;5304;48.604;2.096;2023-10-13T19:26:49;20.73;;;11.40;;
10511;SDS011;5304;48.604;2.096;2023-10-13T19:29:36;19.25;;;10.73;;
10511;SDS011;5304;48.604;2.096;2023-10-13T19:32:21;22.27;;;11.35;;
10511;SDS011;5304;48.604;2.096;2023-10-13T19:35:06;18.23;;;11.20;;
10511;SDS011;5304;48.604;2.096;2023-10-13T19:37:51;15.98;;;11.25;;
10511;SDS011;5304;48.604;2.096;2023-10-13T19:40:36;18.10;;;10.90;;
10511;SDS011;5304;48.604;2.096;2023-10-13T19:43:20;15.95;;;10.10;;
10511;SDS011;5304;48.604;2.096;2023-10-13T19:46:05;20.77;;;9.05;;
10511;SDS011;5304;48.604;2.096;2023-10-13T19:48:49;15.68;;;9.18;;
10511;SDS011;5304;48.604;2.096;2023-10-13T19:51:33;11.02;;;7.60;;
10511;SDS011;5304;48.604;2.096;2023-10-13T19:54:19;12.98;;;7.55;;
10511;SDS011;5304;48.604;2.096;2023-10-13T19:57:04;16.77;;;8.60;;
